createdAt,value
2024-04-03T00:00:33.503Z,12.43
2024-04-03T00:04:36.117Z,12.34
2024-04-03T00:08:36.209Z,12.49
2024-04-03T00:12:35.778Z,12.39
2024-04-03T00:16:38.064Z,12.17
2024-04-03T00:20:38.119Z,12.41
2024-04-03T00:24:38.110Z,12.38
2024-04-03T00:28:38.159Z,12.31
2024-04-03T00:32:40.679Z,12.23
2024-04-03T00:36:40.670Z,12.01
2024-04-03T00:40:40.602Z,12.11
2024-04-03T00:44:47.166Z,12.05
2024-04-03T00:48:50.037Z,12.02
2024-04-03T00:52:50.192Z,11.73
2024-04-03T00:56:50.963Z,11.95
2024-04-03T01:00:50.566Z,11.91
2024-04-03T01:04:52.844Z,11.64
2024-04-03T01:08:52.377Z,12.01
2024-04-03T01:12:53.597Z,12.07
2024-04-03T01:16:53.110Z,12.02
2024-04-03T01:20:55.399Z,11.95
2024-04-03T01:24:57.665Z,11.69
2024-04-03T01:28:57.765Z,11.77
2024-04-03T01:32:57.959Z,11.65
2024-04-03T01:36:58.170Z,11.59
2024-04-03T01:41:00.005Z,11.50
2024-04-03T01:45:00.187Z,11.49
2024-04-03T01:49:00.387Z,11.46
2024-04-03T01:53:00.512Z,11.52
2024-04-03T01:57:02.818Z,11.71
2024-04-03T02:01:03.227Z,11.64
2024-04-03T02:05:03.415Z,11.49
2024-04-03T02:09:04.210Z,11.42
2024-04-03T02:13:06.682Z,11.41
2024-04-03T02:17:07.425Z,11.43
2024-04-03T02:21:07.804Z,11.25
2024-04-03T02:25:08.449Z,11.42
2024-04-03T02:29:10.716Z,11.25
2024-04-03T02:33:11.783Z,11.35
2024-04-03T02:37:11.871Z,11.05
2024-04-03T02:41:12.039Z,11.20
2024-04-03T02:45:14.456Z,11.28
2024-04-03T02:49:14.535Z,11.22
2024-04-03T02:53:14.700Z,11.13
2024-04-03T02:57:14.776Z,11.22
2024-04-03T03:01:16.075Z,11.25
2024-04-03T03:05:16.329Z,11.40
2024-04-03T03:09:17.315Z,11.33
2024-04-03T03:13:17.396Z,11.36
2024-04-03T03:17:19.728Z,11.17
2024-04-03T03:21:21.085Z,11.23
2024-04-03T03:25:21.169Z,11.05
2024-04-03T03:29:21.290Z,10.98
2024-04-03T03:33:23.286Z,10.85
2024-04-03T03:37:23.604Z,10.76
2024-04-03T03:41:23.927Z,10.91
2024-04-03T03:45:24.837Z,11.04
2024-04-03T03:49:43.721Z,10.94
2024-04-03T03:53:43.739Z,10.89
2024-04-03T03:57:43.868Z,10.82
2024-04-03T04:01:44.221Z,10.78
2024-04-03T04:05:47.028Z,10.59
2024-04-03T04:19:33.609Z,10.81
2024-04-03T04:23:39.125Z,10.86
2024-04-03T04:27:41.890Z,11.12
2024-04-03T04:31:45.440Z,11.23
2024-04-03T04:36:05.327Z,11.38
2024-04-03T04:40:22.518Z,11.62
2024-04-03T04:44:41.865Z,11.61
2024-04-03T04:48:52.138Z,11.87
2024-04-03T04:53:12.474Z,11.55
2024-04-03T04:57:20.833Z,11.19
2024-04-03T05:01:19.187Z,11.20
2024-04-03T05:05:30.332Z,11.61
2024-04-03T05:09:58.592Z,11.64
2024-04-03T05:14:32.796Z,11.60
2024-04-03T05:18:37.270Z,11.52
2024-04-03T05:22:48.334Z,11.36
2024-04-03T05:26:59.735Z,11.35
2024-04-03T05:31:08.363Z,11.66
2024-04-03T05:35:28.767Z,11.83
2024-04-03T05:39:33.866Z,12.03
2024-04-03T05:43:44.566Z,11.89
2024-04-03T05:47:51.494Z,12.12
2024-04-03T05:51:56.415Z,12.24
2024-04-03T05:56:16.365Z,12.32
2024-04-03T06:00:26.576Z,12.14
2024-04-03T06:04:33.499Z,12.12
2024-04-03T06:08:54.292Z,11.93
2024-04-03T06:13:08.341Z,12.31
2024-04-03T06:17:15.431Z,12.35
2024-04-03T06:21:22.625Z,12.69
2024-04-03T06:25:25.825Z,12.76
2024-04-03T06:29:44.592Z,12.61
2024-04-03T06:34:25.834Z,12.67
2024-04-03T06:38:43.124Z,13.35
2024-04-03T06:42:49.343Z,13.83
2024-04-03T06:46:58.430Z,14.13
2024-04-03T06:51:12.969Z,14.31
2024-04-03T06:55:21.133Z,14.63
2024-04-03T06:59:22.363Z,14.93
2024-04-03T07:03:22.545Z,15.07
2024-04-03T07:07:31.301Z,14.99
2024-04-03T07:11:41.040Z,15.02
2024-04-03T07:15:41.309Z,15.10
2024-04-03T07:19:42.063Z,15.48
2024-04-03T07:23:41.984Z,15.60
2024-04-03T07:27:56.768Z,15.62
2024-04-03T07:32:10.476Z,15.90
2024-04-03T07:37:01.047Z,15.91
2024-04-03T07:41:02.288Z,16.19
2024-04-03T07:45:05.832Z,16.27
2024-04-03T07:49:13.307Z,15.83
2024-04-03T07:53:15.410Z,16.37
2024-04-03T07:57:14.324Z,16.66
2024-04-03T08:01:17.155Z,16.65
2024-04-03T08:05:31.934Z,16.72
2024-04-03T08:09:44.505Z,16.83
2024-04-03T08:14:26.616Z,17.01
2024-04-03T08:18:39.291Z,17.03
2024-04-03T08:22:45.534Z,17.33
2024-04-03T08:26:52.232Z,17.49
2024-04-03T08:30:54.478Z,17.26
2024-04-03T08:34:57.547Z,17.64
2024-04-03T08:38:58.266Z,17.51
2024-04-03T08:42:59.062Z,17.42
2024-04-03T08:46:59.245Z,17.87
2024-04-03T08:51:03.004Z,18.21
2024-04-03T08:55:10.501Z,18.54
2024-04-03T08:59:14.726Z,18.81
2024-04-03T09:03:15.971Z,18.65
2024-04-03T09:07:25.055Z,19.19
2024-04-03T09:11:37.775Z,18.88
2024-04-03T09:15:39.942Z,18.98
2024-04-03T09:19:52.072Z,19.06
2024-04-03T09:24:45.446Z,18.76
2024-04-03T09:28:52.573Z,19.09
2024-04-03T09:33:02.335Z,18.91
2024-04-03T09:37:04.282Z,19.12
2024-04-03T09:41:10.255Z,19.45
2024-04-03T09:45:14.956Z,19.55
2024-04-03T09:49:37.093Z,19.57
2024-04-03T09:53:39.275Z,19.58
2024-04-03T09:57:41.040Z,19.76
2024-04-03T10:01:58.690Z,19.37
2024-04-03T10:06:07.277Z,19.62
2024-04-03T10:10:21.998Z,19.68
2024-04-03T10:14:24.051Z,19.47
2024-04-03T10:18:29.974Z,19.48
2024-04-03T10:22:34.048Z,19.46
2024-04-03T10:26:43.347Z,19.68
2024-04-03T10:31:15.322Z,19.85
2024-04-03T10:35:29.702Z,19.65
2024-04-03T10:39:48.084Z,19.84
2024-04-03T10:43:49.663Z,20.22
2024-04-03T10:47:49.163Z,20.25
2024-04-03T10:51:51.748Z,20.19
2024-04-03T10:55:52.557Z,20.54
2024-04-03T10:59:53.163Z,20.77
2024-04-03T11:03:54.268Z,20.77
2024-04-03T11:08:07.502Z,20.48
2024-04-03T11:12:13.919Z,20.79
2024-04-03T11:16:14.530Z,20.56
2024-04-03T11:20:15.403Z,20.74
2024-04-03T11:24:27.108Z,20.40
2024-04-03T11:28:27.390Z,20.95
2024-04-03T11:32:28.792Z,21.39
2024-04-03T11:36:39.822Z,21.44
2024-04-03T11:40:44.212Z,20.94
2024-04-03T11:45:09.655Z,21.26
2024-04-03T11:49:15.897Z,20.98
2024-04-03T11:58:35.288Z,21.40
2024-04-03T12:03:28.594Z,21.60
2024-04-03T12:12:02.896Z,21.25
2024-04-03T12:21:50.375Z,20.91
2024-04-03T12:26:04.632Z,21.07
2024-04-03T12:34:49.491Z,21.52
2024-04-03T12:39:06.897Z,21.65
2024-04-03T12:44:18.072Z,21.68
2024-04-03T12:48:33.789Z,21.81
2024-04-03T12:52:39.260Z,22.04
2024-04-03T12:56:56.858Z,21.61
2024-04-03T13:01:04.773Z,21.74
2024-04-03T13:05:10.438Z,21.84
2024-04-03T13:09:35.104Z,21.61
2024-04-03T13:14:04.876Z,21.68
2024-04-03T13:18:14.832Z,21.99
2024-04-03T13:22:20.748Z,22.06
2024-04-03T13:26:26.030Z,21.73
2024-04-03T13:30:28.111Z,21.32
2024-04-03T13:35:36.763Z,21.76
2024-04-03T13:39:56.157Z,22.01
2024-04-03T13:44:08.604Z,22.00
2024-04-03T13:48:15.632Z,22.05
2024-04-03T13:52:17.609Z,22.02
2024-04-03T13:56:56.155Z,21.82
2024-04-03T14:01:56.797Z,21.89
2024-04-03T14:11:04.334Z,22.30
2024-04-03T14:15:05.858Z,22.48
2024-04-03T14:19:12.541Z,22.35
2024-04-03T14:23:13.273Z,22.00
2024-04-03T14:27:16.694Z,21.34
2024-04-03T14:31:19.785Z,21.53
2024-04-03T14:35:23.500Z,21.71
2024-04-03T14:39:25.202Z,21.49
2024-04-03T14:43:32.109Z,21.69
2024-04-03T14:47:41.436Z,21.45
2024-04-03T14:51:57.975Z,21.70
2024-04-03T14:56:28.496Z,21.86
2024-04-03T15:00:43.534Z,21.92
2024-04-03T15:04:48.624Z,21.51
2024-04-03T15:09:05.791Z,21.70
2024-04-03T15:13:16.439Z,21.31
2024-04-03T15:17:32.171Z,21.52
2024-04-03T15:21:40.956Z,21.45
2024-04-03T15:26:09.559Z,21.55
2024-04-03T15:30:14.132Z,21.25
2024-04-03T15:34:26.920Z,21.06
2024-04-03T15:38:29.745Z,20.77
2024-04-03T15:42:46.758Z,21.00
2024-04-03T15:47:10.866Z,21.01
2024-04-03T15:51:42.351Z,20.90
2024-04-03T15:55:47.389Z,20.90
2024-04-03T16:00:09.063Z,20.89
2024-04-03T16:04:16.540Z,21.00
2024-04-03T16:08:20.878Z,21.09
2024-04-03T16:12:36.251Z,21.09
2024-04-03T16:16:44.315Z,21.01
2024-04-03T16:20:46.253Z,20.95
2024-04-03T16:24:51.225Z,21.03
2024-04-03T16:28:52.412Z,20.91
2024-04-03T16:33:08.717Z,20.64
2024-04-03T16:37:11.854Z,20.42
2024-04-03T16:41:13.822Z,20.48
2024-04-03T16:45:15.062Z,20.49
2024-04-03T16:49:18.086Z,20.18
2024-04-03T16:53:17.664Z,19.91
2024-04-03T16:57:26.723Z,19.93
2024-04-03T17:01:33.560Z,19.85
2024-04-03T17:05:38.163Z,19.76
2024-04-03T17:09:39.310Z,19.76
2024-04-03T17:13:42.063Z,19.78
2024-04-03T17:17:42.723Z,19.91
2024-04-03T17:21:50.327Z,20.00
2024-04-03T17:25:51.178Z,20.08
2024-04-03T17:29:57.945Z,20.07
2024-04-03T17:33:59.614Z,20.00
2024-04-03T17:38:08.265Z,19.79
2024-04-03T17:42:12.446Z,19.67
2024-04-03T17:46:15.168Z,19.41
2024-04-03T17:50:16.716Z,19.31
2024-04-03T17:54:21.112Z,19.16
2024-04-03T17:58:37.379Z,19.06
2024-04-03T18:02:40.476Z,19.24
2024-04-03T18:06:41.889Z,19.14
2024-04-03T18:10:45.431Z,19.16
2024-04-03T18:14:46.150Z,19.14
2024-04-03T18:18:53.910Z,18.81
2024-04-03T18:22:54.574Z,18.87
2024-04-03T18:26:57.396Z,18.85
2024-04-03T18:30:58.901Z,18.29
2024-04-03T18:35:02.284Z,18.80
2024-04-03T18:39:05.911Z,18.72
2024-04-03T18:43:10.751Z,18.44
2024-04-03T18:47:11.812Z,18.60
2024-04-03T18:51:12.192Z,18.11
2024-04-03T18:55:15.125Z,17.82
2024-04-03T18:59:27.787Z,17.88
2024-04-03T19:03:27.764Z,17.72
2024-04-03T19:07:41.586Z,17.79
2024-04-03T19:11:43.899Z,17.57
2024-04-03T19:15:51.557Z,17.38
2024-04-03T19:19:58.190Z,17.43
2024-04-03T19:23:59.826Z,17.40
2024-04-03T19:28:00.805Z,17.65
2024-04-03T19:32:04.824Z,17.77
2024-04-03T19:36:09.147Z,17.50
2024-04-03T19:40:16.547Z,17.44
2024-04-03T19:44:17.188Z,17.30
2024-04-03T19:48:25.113Z,16.79
2024-04-03T19:52:28.200Z,16.78
2024-04-03T19:56:31.768Z,16.68
2024-04-03T20:00:34.608Z,16.54
2024-04-03T20:04:37.331Z,16.72
2024-04-03T20:08:38.133Z,16.67
2024-04-03T20:12:44.780Z,15.98
2024-04-03T20:16:45.980Z,16.38
2024-04-03T20:20:50.589Z,16.26
2024-04-03T20:24:52.031Z,16.12
2024-04-03T20:28:52.464Z,15.89
2024-04-03T20:32:52.948Z,16.07
2024-04-03T20:36:56.053Z,15.96
2024-04-03T20:40:56.665Z,15.73
2024-04-03T20:44:57.896Z,15.79
2024-04-03T20:49:01.239Z,15.51
2024-04-03T20:53:04.695Z,15.83
2024-04-03T20:57:05.587Z,15.68
2024-04-03T21:01:07.047Z,16.10
2024-04-03T21:05:11.381Z,15.98
2024-04-03T21:09:14.501Z,15.98
2024-04-03T21:13:18.194Z,15.87
2024-04-03T21:17:19.369Z,15.80
2024-04-03T21:21:20.189Z,15.78
2024-04-03T21:25:22.775Z,15.98
2024-04-03T21:29:23.437Z,16.27
2024-04-03T21:33:27.353Z,16.41
2024-04-03T21:37:28.140Z,16.41
2024-04-03T21:41:34.683Z,16.53
2024-04-03T21:45:33.351Z,16.33
2024-04-03T21:49:37.338Z,16.50
2024-04-03T21:53:39.123Z,16.81
2024-04-03T21:57:42.919Z,17.05
2024-04-03T22:01:52.761Z,17.04
2024-04-03T22:05:53.626Z,16.90
2024-04-03T22:09:57.722Z,16.93
2024-04-03T22:14:06.754Z,17.06
2024-04-03T22:18:10.882Z,16.47
2024-04-03T22:22:11.103Z,16.21
2024-04-03T22:26:12.160Z,16.03
2024-04-03T22:30:18.572Z,15.78
2024-04-03T22:34:19.027Z,15.53
2024-04-03T22:38:21.088Z,14.85
2024-04-03T22:42:21.946Z,14.69
2024-04-03T22:46:23.101Z,14.84
2024-04-03T22:50:26.962Z,14.89
2024-04-03T22:54:28.408Z,14.85
2024-04-03T22:58:26.963Z,14.82
2024-04-03T23:02:29.721Z,14.87
2024-04-03T23:06:30.247Z,14.95
2024-04-03T23:10:31.807Z,15.04
2024-04-03T23:14:32.695Z,15.03
2024-04-03T23:18:38.718Z,14.96
2024-04-03T23:22:39.531Z,14.86
2024-04-03T23:26:40.267Z,14.70
2024-04-03T23:30:41.216Z,14.61
2024-04-03T23:34:46.885Z,14.69
2024-04-03T23:38:47.708Z,14.70
2024-04-03T23:42:48.318Z,14.73
2024-04-03T23:46:46.913Z,14.64
2024-04-03T23:50:58.737Z,14.67
2024-04-03T23:54:59.563Z,14.52
2024-04-03T23:59:00.377Z,14.75
